Shinkomaru No.8 — JK5142 — position and weather

sailwx.info

Track history (hours):
 
Tides and Currents Weather Stations Pressure Air Temp Water Temp Dewpoint Dewpoint Depression Visibility Wind Speed Wind Dir Waves Ship Positions

Shinkomaru No.8

Last reported at 2015-Feb-11 09:13 UTC. Time now 2015-Mar-03 15:05 UTC.
Position N 34°37' E 134°59'.
Warning: this ship's position is 20 days out of date.

Length 61 m; draft 4.2 m.

Type: Tanker. MMSI: 431400035.

Date/timePositionNaut miles runAvg speedWind from/ knotsBaromVisibWave heightAir tempDewpointWater temp
2015-Feb-11 09:13N 34°37' E 134°59'6 9.1
2015-Feb-11 08:32N 34°35' E 135°05'1211.7
2015-Feb-11 07:33N 34°23' E 135°04'9 9.3
2015-Feb-11 06:33N 34°14' E 135°07'0 0.3
2015-Feb-11 05:11N 34°14' E 135°07'0 0.1
2015-Feb-11 04:28N 34°14' E 135°07'0 0.0
2015-Feb-11 03:28N 34°14' E 135°07'0 0.0
2015-Feb-11 02:16N 34°14' E 135°07'0 0.0
2015-Feb-11 01:28N 34°14' E 135°07'0 0.0
2015-Feb-11 00:20N 34°14' E 135°07'0 0.0
2015-Feb-10 23:28N 34°14' E 135°07'0 0.1
2015-Feb-10 22:31N 34°14' E 135°07'2 1.9
2015-Feb-10 21:33N 34°15' E 135°05'0 0.0
2015-Feb-10 20:32N 34°15' E 135°05'0 0.0
2015-Feb-10 19:32N 34°15' E 135°05'0 0.0
2015-Feb-10 18:28N 34°15' E 135°05'0 0.1
2015-Feb-10 17:31N 34°15' E 135°05'0 0.0
2015-Feb-10 16:28N 34°15' E 135°05'0 0.0
2015-Feb-10 15:33N 34°15' E 135°05'0 0.0
2015-Feb-10 14:33N 34°15' E 135°05'0 0.0
2015-Feb-10 13:33N 34°15' E 135°05'0 0.2
2015-Feb-10 12:34N 34°15' E 135°05'1211.5
2015-Feb-10 11:31N 34°27' E 135°04'1111.0
2015-Feb-10 10:31N 34°36' E 134°57'  
Track history (hours):
 
Tides and Currents Weather Stations Pressure Air Temp Water Temp Dewpoint Dewpoint Depression Visibility Wind Speed Wind Dir Waves Ship Positions

Shinkomaru No.8

Last reported at 2015-Feb-11 09:13 UTC. Time now 2015-Mar-03 15:05 UTC.
Position N 34°37' E 134°59'.
Warning: this ship's position is 20 days out of date.

Length 61 m; draft 4.2 m.

Type: Tanker. MMSI: 431400035.

Date/timePositionNaut miles runAvg speedWind from/ knotsBaromVisibWave heightAir tempDewpointWater temp
2015-Feb-11 09:13N 34°37' E 134°59'6 9.1
2015-Feb-11 08:32N 34°35' E 135°05'1211.7
2015-Feb-11 07:33N 34°23' E 135°04'9 9.3
2015-Feb-11 06:33N 34°14' E 135°07'0 0.3
2015-Feb-11 05:11N 34°14' E 135°07'0 0.1
2015-Feb-11 04:28N 34°14' E 135°07'0 0.0
2015-Feb-11 03:28N 34°14' E 135°07'0 0.0
2015-Feb-11 02:16N 34°14' E 135°07'0 0.0
2015-Feb-11 01:28N 34°14' E 135°07'0 0.0
2015-Feb-11 00:20N 34°14' E 135°07'0 0.0
2015-Feb-10 23:28N 34°14' E 135°07'0 0.1
2015-Feb-10 22:31N 34°14' E 135°07'2 1.9
2015-Feb-10 21:33N 34°15' E 135°05'0 0.0
2015-Feb-10 20:32N 34°15' E 135°05'0 0.0
2015-Feb-10 19:32N 34°15' E 135°05'0 0.0
2015-Feb-10 18:28N 34°15' E 135°05'0 0.1
2015-Feb-10 17:31N 34°15' E 135°05'0 0.0
2015-Feb-10 16:28N 34°15' E 135°05'0 0.0
2015-Feb-10 15:33N 34°15' E 135°05'0 0.0
2015-Feb-10 14:33N 34°15' E 135°05'0 0.0
2015-Feb-10 13:33N 34°15' E 135°05'0 0.2
2015-Feb-10 12:34N 34°15' E 135°05'1211.5
2015-Feb-10 11:31N 34°27' E 135°04'1111.0
2015-Feb-10 10:31N 34°36' E 134°57'  

Dump ship's entire track history